sensor_id;sensor_type;location;lat;lon;timestamp;temperature;humidity
14924;DHT22;7554;43.600;1.480;2022-08-21T00:00:15;23.70;1.00
14924;DHT22;7554;43.600;1.480;2022-08-21T00:02:46;23.60;1.00
14924;DHT22;7554;43.600;1.480;2022-08-21T00:05:15;23.60;1.00
14924;DHT22;7554;43.600;1.480;2022-08-21T00:07:44;23.70;1.00
14924;DHT22;7554;43.600;1.480;2022-08-21T00:10:12;23.60;1.00
14924;DHT22;7554;43.600;1.480;2022-08-21T00:12:40;23.70;1.00
14924;DHT22;7554;43.600;1.480;2022-08-21T00:15:10;23.70;1.00
14924;DHT22;7554;43.600;1.480;2022-08-21T00:17:38;23.60;1.00
14924;DHT22;7554;43.600;1.480;2022-08-21T00:20:08;23.60;1.00
14924;DHT22;7554;43.600;1.480;2022-08-21T00:22:36;23.70;1.00
14924;DHT22;7554;43.600;1.480;2022-08-21T00:25:06;23.60;1.00
14924;DHT22;7554;43.600;1.480;2022-08-21T00:27:34;23.60;1.00
14924;DHT22;7554;43.600;1.480;2022-08-21T00:30:03;23.50;1.00
14924;DHT22;7554;43.600;1.480;2022-08-21T00:32:31;23.50;1.00
14924;DHT22;7554;43.600;1.480;2022-08-21T00:34:58;23.50;1.00
14924;DHT22;7554;43.600;1.480;2022-08-21T00:37:25;23.50;1.00
14924;DHT22;7554;43.600;1.480;2022-08-21T00:39:53;23.50;1.00
14924;DHT22;7554;43.600;1.480;2022-08-21T00:42:22;23.50;1.00
14924;DHT22;7554;43.600;1.480;2022-08-21T00:44:50;23.40;1.00
14924;DHT22;7554;43.600;1.480;2022-08-21T00:47:18;23.40;1.00
14924;DHT22;7554;43.600;1.480;2022-08-21T00:49:45;23.30;1.00
14924;DHT22;7554;43.600;1.480;2022-08-21T00:52:17;23.30;1.00
14924;DHT22;7554;43.600;1.480;2022-08-21T00:54:46;23.30;1.00
14924;DHT22;7554;43.600;1.480;2022-08-21T00:57:16;23.30;1.00
14924;DHT22;7554;43.600;1.480;2022-08-21T00:59:47;23.20;1.00
14924;DHT22;7554;43.600;1.480;2022-08-21T01:02:17;23.20;1.00
14924;DHT22;7554;43.600;1.480;2022-08-21T01:04:44;23.10;1.00
14924;DHT22;7554;43.600;1.480;2022-08-21T01:07:12;23.10;1.00
14924;DHT22;7554;43.600;1.480;2022-08-21T01:09:39;23.20;1.00
14924;DHT22;7554;43.600;1.480;2022-08-21T01:12:08;23.10;1.00
14924;DHT22;7554;43.600;1.480;2022-08-21T01:14:36;23.10;1.00
14924;DHT22;7554;43.600;1.480;2022-08-21T01:17:06;23.00;1.00
14924;DHT22;7554;43.600;1.480;2022-08-21T01:19:33;23.00;1.00
14924;DHT22;7554;43.600;1.480;2022-08-21T01:22:02;23.00;1.00
14924;DHT22;7554;43.600;1.480;2022-08-21T01:24:30;23.00;1.00
14924;DHT22;7554;43.600;1.480;2022-08-21T01:26:59;22.90;1.00
14924;DHT22;7554;43.600;1.480;2022-08-21T01:29:31;22.90;1.00
14924;DHT22;7554;43.600;1.480;2022-08-21T01:32:03;22.90;1.00
14924;DHT22;7554;43.600;1.480;2022-08-21T01:34:31;22.90;1.00
14924;DHT22;7554;43.600;1.480;2022-08-21T01:36:59;22.90;1.00
14924;DHT22;7554;43.600;1.480;2022-08-21T01:39:28;22.80;1.00
14924;DHT22;7554;43.600;1.480;2022-08-21T01:41:56;22.80;1.00
14924;DHT22;7554;43.600;1.480;2022-08-21T01:44:24;22.80;1.00
14924;DHT22;7554;43.600;1.480;2022-08-21T01:46:52;22.80;1.00
14924;DHT22;7554;43.600;1.480;2022-08-21T01:49:21;22.80;1.00
14924;DHT22;7554;43.600;1.480;2022-08-21T01:51:48;22.80;1.00
14924;DHT22;7554;43.600;1.480;2022-08-21T01:54:16;22.70;1.00
14924;DHT22;7554;43.600;1.480;2022-08-21T01:56:47;22.80;1.00
14924;DHT22;7554;43.600;1.480;2022-08-21T01:59:15;22.80;1.00
14924;DHT22;7554;43.600;1.480;2022-08-21T02:01:43;22.80;1.00
14924;DHT22;7554;43.600;1.480;2022-08-21T02:04:10;22.80;1.00
14924;DHT22;7554;43.600;1.480;2022-08-21T02:06:38;22.80;1.00
14924;DHT22;7554;43.600;1.480;2022-08-21T02:09:07;22.80;1.00
14924;DHT22;7554;43.600;1.480;2022-08-21T02:11:36;22.80;1.00
14924;DHT22;7554;43.600;1.480;2022-08-21T02:14:07;22.80;1.00
14924;DHT22;7554;43.600;1.480;2022-08-21T02:16:35;22.70;1.00
14924;DHT22;7554;43.600;1.480;2022-08-21T02:19:03;22.60;1.00
14924;DHT22;7554;43.600;1.480;2022-08-21T02:21:30;22.60;1.00
14924;DHT22;7554;43.600;1.480;2022-08-21T02:23:58;22.60;1.00
14924;DHT22;7554;43.600;1.480;2022-08-21T02:26:25;22.50;1.00
14924;DHT22;7554;43.600;1.480;2022-08-21T02:28:53;22.50;1.00
14924;DHT22;7554;43.600;1.480;2022-08-21T02:31:21;22.40;1.00
14924;DHT22;7554;43.600;1.480;2022-08-21T02:33:50;22.40;1.00
14924;DHT22;7554;43.600;1.480;2022-08-21T02:36:17;22.40;1.00
14924;DHT22;7554;43.600;1.480;2022-08-21T02:38:45;22.40;1.00
14924;DHT22;7554;43.600;1.480;2022-08-21T02:41:14;22.40;1.00
14924;DHT22;7554;43.600;1.480;2022-08-21T02:43:43;22.40;1.00
14924;DHT22;7554;43.600;1.480;2022-08-21T02:46:12;22.30;1.00
14924;DHT22;7554;43.600;1.480;2022-08-21T02:48:42;22.30;1.00
14924;DHT22;7554;43.600;1.480;2022-08-21T02:51:12;22.30;1.00
14924;DHT22;7554;43.600;1.480;2022-08-21T02:53:40;22.30;1.00
14924;DHT22;7554;43.600;1.480;2022-08-21T02:56:10;22.30;1.00
14924;DHT22;7554;43.600;1.480;2022-08-21T02:58:40;22.30;1.00
14924;DHT22;7554;43.600;1.480;2022-08-21T03:01:09;22.30;1.00
14924;DHT22;7554;43.600;1.480;2022-08-21T03:03:38;22.20;1.00
14924;DHT22;7554;43.600;1.480;2022-08-21T03:06:09;22.20;1.00
14924;DHT22;7554;43.600;1.480;2022-08-21T03:08:38;22.20;1.00
14924;DHT22;7554;43.600;1.480;2022-08-21T03:11:07;22.20;1.00
14924;DHT22;7554;43.600;1.480;2022-08-21T03:13:35;22.20;1.00
14924;DHT22;7554;43.600;1.480;2022-08-21T03:16:02;22.20;1.00
14924;DHT22;7554;43.600;1.480;2022-08-21T03:18:30;22.20;1.00
14924;DHT22;7554;43.600;1.480;2022-08-21T03:20:57;22.20;1.00
14924;DHT22;7554;43.600;1.480;2022-08-21T03:23:26;22.20;1.00
14924;DHT22;7554;43.600;1.480;2022-08-21T03:25:53;22.20;1.00
14924;DHT22;7554;43.600;1.480;2022-08-21T03:28:21;22.20;1.00
14924;DHT22;7554;43.600;1.480;2022-08-21T03:30:49;22.20;1.00
14924;DHT22;7554;43.600;1.480;2022-08-21T03:33:18;22.20;1.00
14924;DHT22;7554;43.600;1.480;2022-08-21T03:35:52;22.20;1.00
14924;DHT22;7554;43.600;1.480;2022-08-21T03:38:22;22.10;1.00
14924;DHT22;7554;43.600;1.480;2022-08-21T03:40:51;22.20;1.00
14924;DHT22;7554;43.600;1.480;2022-08-21T03:43:18;22.20;1.00
14924;DHT22;7554;43.600;1.480;2022-08-21T03:45:46;22.20;1.00
14924;DHT22;7554;43.600;1.480;2022-08-21T03:48:13;22.20;1.00
14924;DHT22;7554;43.600;1.480;2022-08-21T03:50:43;22.30;1.00
14924;DHT22;7554;43.600;1.480;2022-08-21T03:53:13;22.20;1.00
14924;DHT22;7554;43.600;1.480;2022-08-21T03:55:41;22.20;1.00
14924;DHT22;7554;43.600;1.480;2022-08-21T03:58:10;22.20;1.00
14924;DHT22;7554;43.600;1.480;2022-08-21T04:00:37;22.30;1.00
14924;DHT22;7554;43.600;1.480;2022-08-21T04:03:04;22.20;1.00
14924;DHT22;7554;43.600;1.480;2022-08-21T04:05:32;22.20;1.00
14924;DHT22;7554;43.600;1.480;2022-08-21T04:08:02;22.20;1.00
14924;DHT22;7554;43.600;1.480;2022-08-21T04:10:32;22.20;1.00
14924;DHT22;7554;43.600;1.480;2022-08-21T04:13:00;22.20;1.00
14924;DHT22;7554;43.600;1.480;2022-08-21T04:15:29;22.20;1.00
14924;DHT22;7554;43.600;1.480;2022-08-21T04:17:56;22.20;1.00
14924;DHT22;7554;43.600;1.480;2022-08-21T04:20:25;22.20;1.00
14924;DHT22;7554;43.600;1.480;2022-08-21T04:22:52;22.20;1.00
14924;DHT22;7554;43.600;1.480;2022-08-21T04:25:22;22.20;1.00
14924;DHT22;7554;43.600;1.480;2022-08-21T04:27:49;22.20;1.00
14924;DHT22;7554;43.600;1.480;2022-08-21T04:30:17;22.10;1.00
14924;DHT22;7554;43.600;1.480;2022-08-21T04:32:48;22.10;1.00
14924;DHT22;7554;43.600;1.480;2022-08-21T04:35:17;22.10;1.00
14924;DHT22;7554;43.600;1.480;2022-08-21T04:37:45;22.00;1.00
14924;DHT22;7554;43.600;1.480;2022-08-21T04:40:15;22.00;1.00
14924;DHT22;7554;43.600;1.480;2022-08-21T04:42:44;22.00;1.00
14924;DHT22;7554;43.600;1.480;2022-08-21T04:45:18;21.90;1.00
14924;DHT22;7554;43.600;1.480;2022-08-21T04:47:50;22.00;1.00
14924;DHT22;7554;43.600;1.480;2022-08-21T04:50:18;22.00;1.00
14924;DHT22;7554;43.600;1.480;2022-08-21T04:53:10;22.10;1.00
14924;DHT22;7554;43.600;1.480;2022-08-21T04:55:39;22.10;1.00
14924;DHT22;7554;43.600;1.480;2022-08-21T04:58:08;22.10;1.00
14924;DHT22;7554;43.600;1.480;2022-08-21T05:00:36;22.10;1.00
14924;DHT22;7554;43.600;1.480;2022-08-21T05:03:06;22.10;1.00
14924;DHT22;7554;43.600;1.480;2022-08-21T05:05:34;22.10;1.00
14924;DHT22;7554;43.600;1.480;2022-08-21T05:08:03;22.00;1.00
14924;DHT22;7554;43.600;1.480;2022-08-21T05:10:31;22.00;1.00
14924;DHT22;7554;43.600;1.480;2022-08-21T05:12:59;22.00;1.00
14924;DHT22;7554;43.600;1.480;2022-08-21T05:15:27;22.40;1.00
14924;DHT22;7554;43.600;1.480;2022-08-21T05:17:55;22.80;1.00
14924;DHT22;7554;43.600;1.480;2022-08-21T05:20:24;22.60;1.00
14924;DHT22;7554;43.600;1.480;2022-08-21T05:22:52;22.60;1.00
14924;DHT22;7554;43.600;1.480;2022-08-21T05:25:19;22.70;1.00
14924;DHT22;7554;43.600;1.480;2022-08-21T05:27:47;22.60;1.00
14924;DHT22;7554;43.600;1.480;2022-08-21T05:30:14;22.40;1.00
14924;DHT22;7554;43.600;1.480;2022-08-21T05:32:41;23.00;1.00
14924;DHT22;7554;43.600;1.480;2022-08-21T05:35:09;24.40;1.00
14924;DHT22;7554;43.600;1.480;2022-08-21T05:37:38;25.30;1.00
14924;DHT22;7554;43.600;1.480;2022-08-21T05:40:06;25.90;1.00
14924;DHT22;7554;43.600;1.480;2022-08-21T05:42:35;26.60;1.00
14924;DHT22;7554;43.600;1.480;2022-08-21T05:45:02;26.40;1.00
14924;DHT22;7554;43.600;1.480;2022-08-21T05:47:30;27.00;1.00
14924;DHT22;7554;43.600;1.480;2022-08-21T05:49:57;26.10;1.00
14924;DHT22;7554;43.600;1.480;2022-08-21T05:52:24;25.30;1.00
14924;DHT22;7554;43.600;1.480;2022-08-21T05:54:53;26.00;1.00
14924;DHT22;7554;43.600;1.480;2022-08-21T05:57:22;27.40;1.00
14924;DHT22;7554;43.600;1.480;2022-08-21T05:59:51;28.60;1.00
14924;DHT22;7554;43.600;1.480;2022-08-21T06:02:19;29.60;1.00
14924;DHT22;7554;43.600;1.480;2022-08-21T06:04:47;30.60;1.00
14924;DHT22;7554;43.600;1.480;2022-08-21T06:07:14;31.20;1.00
14924;DHT22;7554;43.600;1.480;2022-08-21T06:09:42;31.90;1.00
14924;DHT22;7554;43.600;1.480;2022-08-21T06:12:12;32.50;1.00
14924;DHT22;7554;43.600;1.480;2022-08-21T06:14:40;32.60;1.00
14924;DHT22;7554;43.600;1.480;2022-08-21T06:17:10;32.90;1.00
14924;DHT22;7554;43.600;1.480;2022-08-21T06:19:38;33.80;1.00
14924;DHT22;7554;43.600;1.480;2022-08-21T06:22:05;33.60;1.00
14924;DHT22;7554;43.600;1.480;2022-08-21T06:24:32;30.80;1.00
14924;DHT22;7554;43.600;1.480;2022-08-21T06:27:04;29.10;1.00
14924;DHT22;7554;43.600;1.480;2022-08-21T06:29:35;28.10;1.00
14924;DHT22;7554;43.600;1.480;2022-08-21T06:32:03;28.90;1.00
14924;DHT22;7554;43.600;1.480;2022-08-21T06:34:35;31.40;1.00
14924;DHT22;7554;43.600;1.480;2022-08-21T06:37:03;32.80;1.00
14924;DHT22;7554;43.600;1.480;2022-08-21T06:39:30;33.80;1.00
14924;DHT22;7554;43.600;1.480;2022-08-21T06:41:58;35.30;1.00
14924;DHT22;7554;43.600;1.480;2022-08-21T06:44:25;36.10;1.00
14924;DHT22;7554;43.600;1.480;2022-08-21T06:46:54;36.00;1.00
14924;DHT22;7554;43.600;1.480;2022-08-21T06:49:21;35.30;1.00
14924;DHT22;7554;43.600;1.480;2022-08-21T06:51:49;35.90;1.00
14924;DHT22;7554;43.600;1.480;2022-08-21T06:54:16;36.60;1.00
14924;DHT22;7554;43.600;1.480;2022-08-21T06:56:43;37.70;1.00
14924;DHT22;7554;43.600;1.480;2022-08-21T06:59:11;37.90;1.00
14924;DHT22;7554;43.600;1.480;2022-08-21T07:01:38;38.50;1.00
14924;DHT22;7554;43.600;1.480;2022-08-21T07:04:08;37.40;1.00
14924;DHT22;7554;43.600;1.480;2022-08-21T07:06:35;38.00;1.00
14924;DHT22;7554;43.600;1.480;2022-08-21T07:09:03;37.80;1.00
14924;DHT22;7554;43.600;1.480;2022-08-21T07:11:30;38.10;1.00
14924;DHT22;7554;43.600;1.480;2022-08-21T07:13:58;38.00;1.00
14924;DHT22;7554;43.600;1.480;2022-08-21T07:16:25;38.30;1.00
14924;DHT22;7554;43.600;1.480;2022-08-21T07:18:52;39.10;1.00
14924;DHT22;7554;43.600;1.480;2022-08-21T07:21:21;39.50;1.00
14924;DHT22;7554;43.600;1.480;2022-08-21T07:23:50;39.70;1.00
14924;DHT22;7554;43.600;1.480;2022-08-21T07:26:20;40.20;1.00
14924;DHT22;7554;43.600;1.480;2022-08-21T07:28:47;40.00;1.00
14924;DHT22;7554;43.600;1.480;2022-08-21T07:31:17;39.20;1.00
14924;DHT22;7554;43.600;1.480;2022-08-21T07:33:45;39.30;1.00
14924;DHT22;7554;43.600;1.480;2022-08-21T07:36:13;39.90;1.00
14924;DHT22;7554;43.600;1.480;2022-08-21T07:38:42;39.80;1.00
14924;DHT22;7554;43.600;1.480;2022-08-21T07:41:13;37.50;1.00
14924;DHT22;7554;43.600;1.480;2022-08-21T07:43:42;36.90;1.00
14924;DHT22;7554;43.600;1.480;2022-08-21T07:46:10;37.50;1.00
14924;DHT22;7554;43.600;1.480;2022-08-21T07:48:38;38.10;1.00
14924;DHT22;7554;43.600;1.480;2022-08-21T07:51:07;39.00;1.00
14924;DHT22;7554;43.600;1.480;2022-08-21T07:53:35;40.80;1.00
14924;DHT22;7554;43.600;1.480;2022-08-21T07:56:05;41.60;1.00
14924;DHT22;7554;43.600;1.480;2022-08-21T07:58:34;41.70;1.00
14924;DHT22;7554;43.600;1.480;2022-08-21T08:01:01;41.10;1.00
14924;DHT22;7554;43.600;1.480;2022-08-21T08:03:29;40.80;1.00
14924;DHT22;7554;43.600;1.480;2022-08-21T08:05:56;39.50;1.00
14924;DHT22;7554;43.600;1.480;2022-08-21T08:08:24;39.80;1.00
14924;DHT22;7554;43.600;1.480;2022-08-21T08:10:51;38.30;1.00
14924;DHT22;7554;43.600;1.480;2022-08-21T08:13:21;37.90;1.00
14924;DHT22;7554;43.600;1.480;2022-08-21T08:15:49;38.60;1.00
14924;DHT22;7554;43.600;1.480;2022-08-21T08:18:16;41.60;1.00
14924;DHT22;7554;43.600;1.480;2022-08-21T08:20:43;43.80;1.00
14924;DHT22;7554;43.600;1.480;2022-08-21T08:23:11;41.60;1.00
14924;DHT22;7554;43.600;1.480;2022-08-21T08:25:39;39.90;1.00
14924;DHT22;7554;43.600;1.480;2022-08-21T08:28:06;39.10;1.00
14924;DHT22;7554;43.600;1.480;2022-08-21T08:30:35;38.90;1.00
14924;DHT22;7554;43.600;1.480;2022-08-21T08:33:03;38.50;1.00
14924;DHT22;7554;43.600;1.480;2022-08-21T08:35:30;39.50;1.00
14924;DHT22;7554;43.600;1.480;2022-08-21T08:37:57;40.70;1.00
14924;DHT22;7554;43.600;1.480;2022-08-21T08:40:31;42.20;1.00
14924;DHT22;7554;43.600;1.480;2022-08-21T08:43:01;42.20;1.00
14924;DHT22;7554;43.600;1.480;2022-08-21T08:45:39;43.20;1.00
14924;DHT22;7554;43.600;1.480;2022-08-21T08:48:10;43.80;1.00
14924;DHT22;7554;43.600;1.480;2022-08-21T08:50:44;44.50;1.00
14924;DHT22;7554;43.600;1.480;2022-08-21T08:53:15;43.80;1.00
14924;DHT22;7554;43.600;1.480;2022-08-21T08:55:45;44.00;1.00
14924;DHT22;7554;43.600;1.480;2022-08-21T08:58:18;44.20;1.00
14924;DHT22;7554;43.600;1.480;2022-08-21T09:00:50;44.20;1.00
14924;DHT22;7554;43.600;1.480;2022-08-21T09:03:18;44.00;1.00
14924;DHT22;7554;43.600;1.480;2022-08-21T09:05:50;44.80;1.00
14924;DHT22;7554;43.600;1.480;2022-08-21T09:08:33;43.10;1.00
14924;DHT22;7554;43.600;1.480;2022-08-21T09:11:09;41.70;1.00
14924;DHT22;7554;43.600;1.480;2022-08-21T09:13:48;41.20;1.00
14924;DHT22;7554;43.600;1.480;2022-08-21T09:16:27;41.40;1.00
14924;DHT22;7554;43.600;1.480;2022-08-21T09:19:04;40.80;1.00
14924;DHT22;7554;43.600;1.480;2022-08-21T09:21:40;40.20;1.00
14924;DHT22;7554;43.600;1.480;2022-08-21T09:24:22;38.70;1.00
14924;DHT22;7554;43.600;1.480;2022-08-21T09:27:00;38.10;1.00
14924;DHT22;7554;43.600;1.480;2022-08-21T09:29:33;38.40;1.00
14924;DHT22;7554;43.600;1.480;2022-08-21T09:32:03;38.70;1.00
14924;DHT22;7554;43.600;1.480;2022-08-21T09:34:31;38.20;1.00
14924;DHT22;7554;43.600;1.480;2022-08-21T09:36:58;36.10;1.00
14924;DHT22;7554;43.600;1.480;2022-08-21T09:39:29;34.30;1.00
14924;DHT22;7554;43.600;1.480;2022-08-21T09:41:58;33.70;1.00
14924;DHT22;7554;43.600;1.480;2022-08-21T09:44:28;33.50;1.00
14924;DHT22;7554;43.600;1.480;2022-08-21T09:46:56;33.70;1.00
14924;DHT22;7554;43.600;1.480;2022-08-21T09:49:33;33.50;1.00
14924;DHT22;7554;43.600;1.480;2022-08-21T09:52:02;33.60;1.00
14924;DHT22;7554;43.600;1.480;2022-08-21T09:54:33;33.80;1.00
14924;DHT22;7554;43.600;1.480;2022-08-21T09:57:12;34.10;1.00
14924;DHT22;7554;43.600;1.480;2022-08-21T10:00:19;34.30;1.00
14924;DHT22;7554;43.600;1.480;2022-08-21T10:02:50;34.50;1.00
14924;DHT22;7554;43.600;1.480;2022-08-21T10:05:21;33.80;1.00
14924;DHT22;7554;43.600;1.480;2022-08-21T10:07:49;34.00;1.00
14924;DHT22;7554;43.600;1.480;2022-08-21T10:10:20;34.40;1.00
14924;DHT22;7554;43.600;1.480;2022-08-21T10:12:53;34.60;1.00
14924;DHT22;7554;43.600;1.480;2022-08-21T10:15:36;34.10;1.00
14924;DHT22;7554;43.600;1.480;2022-08-21T10:18:12;33.80;1.00
14924;DHT22;7554;43.600;1.480;2022-08-21T10:20:46;34.20;1.00
14924;DHT22;7554;43.600;1.480;2022-08-21T10:23:29;33.60;1.00
14924;DHT22;7554;43.600;1.480;2022-08-21T10:26:11;33.80;1.00
14924;DHT22;7554;43.600;1.480;2022-08-21T10:28:47;34.00;1.00
14924;DHT22;7554;43.600;1.480;2022-08-21T10:31:27;34.10;1.00
14924;DHT22;7554;43.600;1.480;2022-08-21T10:34:05;33.60;1.00
14924;DHT22;7554;43.600;1.480;2022-08-21T10:36:39;33.50;1.00
14924;DHT22;7554;43.600;1.480;2022-08-21T10:39:17;33.40;1.00
14924;DHT22;7554;43.600;1.480;2022-08-21T10:42:02;33.10;1.00
14924;DHT22;7554;43.600;1.480;2022-08-21T10:44:39;33.10;1.00
14924;DHT22;7554;43.600;1.480;2022-08-21T10:47:13;33.10;1.00
14924;DHT22;7554;43.600;1.480;2022-08-21T10:49:49;33.30;1.00
14924;DHT22;7554;43.600;1.480;2022-08-21T10:52:41;33.20;1.00
14924;DHT22;7554;43.600;1.480;2022-08-21T10:55:14;33.20;1.00
14924;DHT22;7554;43.600;1.480;2022-08-21T10:57:47;32.90;1.00
14924;DHT22;7554;43.600;1.480;2022-08-21T11:00:20;32.60;1.00
14924;DHT22;7554;43.600;1.480;2022-08-21T11:02:54;32.90;1.00
14924;DHT22;7554;43.600;1.480;2022-08-21T11:05:27;32.60;1.00
14924;DHT22;7554;43.600;1.480;2022-08-21T11:08:02;32.10;1.00
14924;DHT22;7554;43.600;1.480;2022-08-21T11:10:36;31.70;1.00
14924;DHT22;7554;43.600;1.480;2022-08-21T11:13:12;31.90;1.00
14924;DHT22;7554;43.600;1.480;2022-08-21T11:15:52;32.30;1.00
14924;DHT22;7554;43.600;1.480;2022-08-21T11:18:27;32.60;1.00
14924;DHT22;7554;43.600;1.480;2022-08-21T11:21:02;32.90;1.00
14924;DHT22;7554;43.600;1.480;2022-08-21T11:23:40;33.30;1.00
14924;DHT22;7554;43.600;1.480;2022-08-21T11:26:10;32.90;1.00
14924;DHT22;7554;43.600;1.480;2022-08-21T11:28:46;32.60;1.00
14924;DHT22;7554;43.600;1.480;2022-08-21T11:31:31;32.80;1.00
14924;DHT22;7554;43.600;1.480;2022-08-21T11:34:11;33.20;1.00
14924;DHT22;7554;43.600;1.480;2022-08-21T11:36:47;33.50;1.00
14924;DHT22;7554;43.600;1.480;2022-08-21T11:39:26;33.40;1.00
14924;DHT22;7554;43.600;1.480;2022-08-21T11:42:03;33.00;1.00
14924;DHT22;7554;43.600;1.480;2022-08-21T11:44:41;33.00;1.00
14924;DHT22;7554;43.600;1.480;2022-08-21T11:47:15;33.20;1.00
14924;DHT22;7554;43.600;1.480;2022-08-21T11:49:57;33.60;1.00
14924;DHT22;7554;43.600;1.480;2022-08-21T11:52:31;33.80;1.00
14924;DHT22;7554;43.600;1.480;2022-08-21T11:55:05;33.80;1.00
14924;DHT22;7554;43.600;1.480;2022-08-21T11:57:38;33.60;1.00
14924;DHT22;7554;43.600;1.480;2022-08-21T12:00:13;33.50;1.00
14924;DHT22;7554;43.600;1.480;2022-08-21T12:02:46;32.30;1.00
14924;DHT22;7554;43.600;1.480;2022-08-21T12:05:26;32.60;1.00
14924;DHT22;7554;43.600;1.480;2022-08-21T12:08:02;32.90;1.00
14924;DHT22;7554;43.600;1.480;2022-08-21T12:10:35;33.30;1.00
14924;DHT22;7554;43.600;1.480;2022-08-21T12:13:08;33.30;1.00
14924;DHT22;7554;43.600;1.480;2022-08-21T12:15:37;33.20;1.00
14924;DHT22;7554;43.600;1.480;2022-08-21T12:18:07;33.30;1.00
14924;DHT22;7554;43.600;1.480;2022-08-21T12:20:58;33.50;1.00
14924;DHT22;7554;43.600;1.480;2022-08-21T12:23:29;33.30;1.00
14924;DHT22;7554;43.600;1.480;2022-08-21T12:26:10;33.30;1.00
14924;DHT22;7554;43.600;1.480;2022-08-21T12:28:40;33.70;1.00
14924;DHT22;7554;43.600;1.480;2022-08-21T12:31:23;33.50;1.00
14924;DHT22;7554;43.600;1.480;2022-08-21T12:33:55;33.20;1.00
14924;DHT22;7554;43.600;1.480;2022-08-21T12:36:27;32.90;1.00
14924;DHT22;7554;43.600;1.480;2022-08-21T12:38:59;32.50;1.00
14924;DHT22;7554;43.600;1.480;2022-08-21T12:41:37;32.70;1.00
14924;DHT22;7554;43.600;1.480;2022-08-21T12:44:12;32.70;1.00
14924;DHT22;7554;43.600;1.480;2022-08-21T12:46:46;32.80;1.00
14924;DHT22;7554;43.600;1.480;2022-08-21T12:49:15;32.90;1.00
14924;DHT22;7554;43.600;1.480;2022-08-21T12:51:50;32.90;1.00
14924;DHT22;7554;43.600;1.480;2022-08-21T12:54:25;33.00;1.00
14924;DHT22;7554;43.600;1.480;2022-08-21T12:56:59;33.10;1.00
14924;DHT22;7554;43.600;1.480;2022-08-21T12:59:27;32.80;1.00
14924;DHT22;7554;43.600;1.480;2022-08-21T13:01:55;32.40;1.00
14924;DHT22;7554;43.600;1.480;2022-08-21T13:04:32;32.80;1.00
14924;DHT22;7554;43.600;1.480;2022-08-21T13:07:00;32.60;1.00
14924;DHT22;7554;43.600;1.480;2022-08-21T13:09:29;32.90;1.00
14924;DHT22;7554;43.600;1.480;2022-08-21T13:11:59;32.90;1.00
14924;DHT22;7554;43.600;1.480;2022-08-21T13:14:31;32.60;1.00
14924;DHT22;7554;43.600;1.480;2022-08-21T13:17:02;32.60;1.00
14924;DHT22;7554;43.600;1.480;2022-08-21T13:19:31;32.50;1.00
14924;DHT22;7554;43.600;1.480;2022-08-21T13:21:59;32.60;1.00
14924;DHT22;7554;43.600;1.480;2022-08-21T13:24:29;32.90;1.00
14924;DHT22;7554;43.600;1.480;2022-08-21T13:26:57;32.80;1.00
14924;DHT22;7554;43.600;1.480;2022-08-21T13:29:28;32.90;1.00
14924;DHT22;7554;43.600;1.480;2022-08-21T13:32:00;32.60;1.00
14924;DHT22;7554;43.600;1.480;2022-08-21T13:34:31;32.10;1.00
14924;DHT22;7554;43.600;1.480;2022-08-21T13:37:02;32.10;1.00
14924;DHT22;7554;43.600;1.480;2022-08-21T13:39:30;32.10;1.00
14924;DHT22;7554;43.600;1.480;2022-08-21T13:42:00;32.40;1.00
14924;DHT22;7554;43.600;1.480;2022-08-21T13:44:36;32.60;1.00
14924;DHT22;7554;43.600;1.480;2022-08-21T13:47:05;32.50;1.00
14924;DHT22;7554;43.600;1.480;2022-08-21T13:49:35;32.30;1.00
14924;DHT22;7554;43.600;1.480;2022-08-21T13:52:04;32.30;1.00
14924;DHT22;7554;43.600;1.480;2022-08-21T13:54:37;32.10;1.00
14924;DHT22;7554;43.600;1.480;2022-08-21T13:57:16;32.30;1.00
14924;DHT22;7554;43.600;1.480;2022-08-21T13:59:46;32.40;1.00
14924;DHT22;7554;43.600;1.480;2022-08-21T14:02:15;31.90;1.00
14924;DHT22;7554;43.600;1.480;2022-08-21T14:04:55;31.80;1.00
14924;DHT22;7554;43.600;1.480;2022-08-21T14:07:28;31.80;1.00
14924;DHT22;7554;43.600;1.480;2022-08-21T14:10:01;31.90;1.00
14924;DHT22;7554;43.600;1.480;2022-08-21T14:12:35;31.80;1.00
14924;DHT22;7554;43.600;1.480;2022-08-21T14:15:06;31.90;1.00
14924;DHT22;7554;43.600;1.480;2022-08-21T14:17:36;31.60;1.00
14924;DHT22;7554;43.600;1.480;2022-08-21T14:20:05;31.90;1.00
14924;DHT22;7554;43.600;1.480;2022-08-21T14:22:38;31.70;1.00
14924;DHT22;7554;43.600;1.480;2022-08-21T14:25:10;31.80;1.00
14924;DHT22;7554;43.600;1.480;2022-08-21T14:27:43;31.80;1.00
14924;DHT22;7554;43.600;1.480;2022-08-21T14:30:17;31.90;1.00
14924;DHT22;7554;43.600;1.480;2022-08-21T14:32:46;31.90;1.00
14924;DHT22;7554;43.600;1.480;2022-08-21T14:35:14;32.10;1.00
14924;DHT22;7554;43.600;1.480;2022-08-21T14:37:43;32.10;1.00
14924;DHT22;7554;43.600;1.480;2022-08-21T14:40:12;31.90;1.00
14924;DHT22;7554;43.600;1.480;2022-08-21T14:42:40;32.00;1.00
14924;DHT22;7554;43.600;1.480;2022-08-21T14:45:14;31.70;1.00
14924;DHT22;7554;43.600;1.480;2022-08-21T14:47:42;31.50;1.00
14924;DHT22;7554;43.600;1.480;2022-08-21T14:50:10;31.70;1.00
14924;DHT22;7554;43.600;1.480;2022-08-21T14:52:38;31.50;1.00
14924;DHT22;7554;43.600;1.480;2022-08-21T14:55:07;31.40;1.00
14924;DHT22;7554;43.600;1.480;2022-08-21T14:57:36;31.40;1.00
14924;DHT22;7554;43.600;1.480;2022-08-21T15:00:05;31.40;1.00
14924;DHT22;7554;43.600;1.480;2022-08-21T15:02:34;31.40;1.00
14924;DHT22;7554;43.600;1.480;2022-08-21T15:05:01;31.30;1.00
14924;DHT22;7554;43.600;1.480;2022-08-21T15:07:29;31.10;1.00
14924;DHT22;7554;43.600;1.480;2022-08-21T15:09:56;31.10;1.00
14924;DHT22;7554;43.600;1.480;2022-08-21T15:12:24;31.10;1.00
14924;DHT22;7554;43.600;1.480;2022-08-21T15:14:52;30.90;1.00
14924;DHT22;7554;43.600;1.480;2022-08-21T15:17:19;30.80;1.00
14924;DHT22;7554;43.600;1.480;2022-08-21T15:19:48;30.70;1.00
14924;DHT22;7554;43.600;1.480;2022-08-21T15:22:16;30.50;1.00
14924;DHT22;7554;43.600;1.480;2022-08-21T15:24:43;30.50;1.00
14924;DHT22;7554;43.600;1.480;2022-08-21T15:27:11;30.30;1.00
14924;DHT22;7554;43.600;1.480;2022-08-21T15:29:40;30.00;1.00
14924;DHT22;7554;43.600;1.480;2022-08-21T15:32:17;30.00;1.00
14924;DHT22;7554;43.600;1.480;2022-08-21T15:34:46;30.20;1.00
14924;DHT22;7554;43.600;1.480;2022-08-21T15:37:15;30.00;1.00
14924;DHT22;7554;43.600;1.480;2022-08-21T15:39:43;30.00;1.00
14924;DHT22;7554;43.600;1.480;2022-08-21T15:42:11;30.10;1.00
14924;DHT22;7554;43.600;1.480;2022-08-21T15:44:40;30.10;1.00
14924;DHT22;7554;43.600;1.480;2022-08-21T15:47:19;30.10;1.00
14924;DHT22;7554;43.600;1.480;2022-08-21T15:49:48;30.00;1.00
14924;DHT22;7554;43.600;1.480;2022-08-21T15:52:19;30.10;1.00
14924;DHT22;7554;43.600;1.480;2022-08-21T15:54:47;30.20;1.00
14924;DHT22;7554;43.600;1.480;2022-08-21T15:57:16;30.20;1.00
14924;DHT22;7554;43.600;1.480;2022-08-21T15:59:46;30.30;1.00
14924;DHT22;7554;43.600;1.480;2022-08-21T16:02:16;30.10;1.00
14924;DHT22;7554;43.600;1.480;2022-08-21T16:04:44;30.20;1.00
14924;DHT22;7554;43.600;1.480;2022-08-21T16:07:11;30.30;1.00
14924;DHT22;7554;43.600;1.480;2022-08-21T16:09:40;30.30;1.00
14924;DHT22;7554;43.600;1.480;2022-08-21T16:12:10;30.40;1.00
14924;DHT22;7554;43.600;1.480;2022-08-21T16:14:38;30.20;1.00
14924;DHT22;7554;43.600;1.480;2022-08-21T16:17:06;30.00;1.00
14924;DHT22;7554;43.600;1.480;2022-08-21T16:19:34;29.90;1.00
14924;DHT22;7554;43.600;1.480;2022-08-21T16:22:02;30.00;1.00